Kansas City, Missouri
Traffic Map
Current Weather Conditions
Kansas City, Missouri
Clear
Clear
65°
Feels Like: 65°
Wind Chill: 65° Ceiling: Unl
Heat Index: 65° Visibility: 10mi
Dew Point: 53° Wind: 0mph
Humidity: 65% Direction: ° ()
Pressure: 30.23in Gusts: 0mph
Raw Report DataKMKC 250954Z 00000KT 10SM CLR 18/12 A3023 RMK AO2 SLP231 T01830117
Traffic Incident Summary
Active as of:
Severity:
Category:
InformationThere was an issue retrieving the traffic information for this location. Please try a different location or try again shortly.
Advertisements
Track Severe Weather on mobile